sensor_id;sensor_type;location;lat;lon;timestamp;P1;durP1;ratioP1;P2;durP2;ratioP2
52838;SDS011;39219;53.678;9.856;2023-03-01T00:01:41;16.30;;;7.13;;
52838;SDS011;39219;53.678;9.856;2023-03-01T00:04:08;14.73;;;7.10;;
52838;SDS011;39219;53.678;9.856;2023-03-01T00:06:34;14.35;;;6.95;;
52838;SDS011;39219;53.678;9.856;2023-03-01T00:09:00;13.55;;;6.90;;
52838;SDS011;39219;53.678;9.856;2023-03-01T00:11:28;13.70;;;7.00;;
52838;SDS011;39219;53.678;9.856;2023-03-01T00:13:56;15.32;;;7.60;;
52838;SDS011;39219;53.678;9.856;2023-03-01T00:16:23;13.77;;;6.85;;
52838;SDS011;39219;53.678;9.856;2023-03-01T00:18:50;14.57;;;7.72;;
52838;SDS011;39219;53.678;9.856;2023-03-01T00:21:17;14.23;;;7.00;;
52838;SDS011;39219;53.678;9.856;2023-03-01T00:23:43;15.13;;;7.38;;
52838;SDS011;39219;53.678;9.856;2023-03-01T00:26:10;14.30;;;7.00;;
52838;SDS011;39219;53.678;9.856;2023-03-01T00:28:38;13.15;;;6.70;;
52838;SDS011;39219;53.678;9.856;2023-03-01T00:31:05;13.25;;;6.60;;
52838;SDS011;39219;53.678;9.856;2023-03-01T00:33:31;13.85;;;7.10;;
52838;SDS011;39219;53.678;9.856;2023-03-01T00:35:57;12.43;;;6.65;;
52838;SDS011;39219;53.678;9.856;2023-03-01T00:38:24;13.77;;;6.43;;
52838;SDS011;39219;53.678;9.856;2023-03-01T00:40:50;13.93;;;6.45;;
52838;SDS011;39219;53.678;9.856;2023-03-01T00:43:16;13.20;;;6.97;;
52838;SDS011;39219;53.678;9.856;2023-03-01T00:45:44;13.15;;;6.65;;
52838;SDS011;39219;53.678;9.856;2023-03-01T00:48:10;13.05;;;6.13;;
52838;SDS011;39219;53.678;9.856;2023-03-01T00:50:36;14.20;;;6.50;;
52838;SDS011;39219;53.678;9.856;2023-03-01T00:53:02;11.82;;;6.47;;
52838;SDS011;39219;53.678;9.856;2023-03-01T00:55:29;13.02;;;5.93;;
52838;SDS011;39219;53.678;9.856;2023-03-01T00:57:56;13.38;;;6.82;;
52838;SDS011;39219;53.678;9.856;2023-03-01T01:00:22;13.23;;;6.68;;
52838;SDS011;39219;53.678;9.856;2023-03-01T01:02:50;11.40;;;6.13;;
52838;SDS011;39219;53.678;9.856;2023-03-01T01:05:16;12.07;;;6.50;;
52838;SDS011;39219;53.678;9.856;2023-03-01T01:07:45;13.23;;;6.35;;
52838;SDS011;39219;53.678;9.856;2023-03-01T01:10:12;14.93;;;6.53;;
52838;SDS011;39219;53.678;9.856;2023-03-01T01:12:41;12.38;;;6.18;;
52838;SDS011;39219;53.678;9.856;2023-03-01T01:15:08;13.05;;;6.25;;
52838;SDS011;39219;53.678;9.856;2023-03-01T01:17:37;13.60;;;6.28;;
52838;SDS011;39219;53.678;9.856;2023-03-01T01:20:05;11.85;;;6.50;;
52838;SDS011;39219;53.678;9.856;2023-03-01T01:22:32;13.30;;;6.53;;
52838;SDS011;39219;53.678;9.856;2023-03-01T01:24:58;16.38;;;6.40;;
52838;SDS011;39219;53.678;9.856;2023-03-01T01:27:25;14.63;;;6.90;;
52838;SDS011;39219;53.678;9.856;2023-03-01T01:29:52;13.63;;;6.65;;
52838;SDS011;39219;53.678;9.856;2023-03-01T01:32:18;13.23;;;6.72;;
52838;SDS011;39219;53.678;9.856;2023-03-01T01:34:45;14.50;;;7.15;;
52838;SDS011;39219;53.678;9.856;2023-03-01T01:37:12;12.68;;;6.55;;
52838;SDS011;39219;53.678;9.856;2023-03-01T01:39:39;13.23;;;6.65;;
52838;SDS011;39219;53.678;9.856;2023-03-01T01:42:05;13.75;;;6.63;;
52838;SDS011;39219;53.678;9.856;2023-03-01T01:44:33;13.68;;;6.85;;
52838;SDS011;39219;53.678;9.856;2023-03-01T01:47:00;16.08;;;6.50;;
52838;SDS011;39219;53.678;9.856;2023-03-01T01:49:29;13.95;;;6.90;;
52838;SDS011;39219;53.678;9.856;2023-03-01T01:51:59;13.57;;;6.63;;
52838;SDS011;39219;53.678;9.856;2023-03-01T01:54:30;13.32;;;6.80;;
52838;SDS011;39219;53.678;9.856;2023-03-01T01:57:01;12.88;;;6.50;;
52838;SDS011;39219;53.678;9.856;2023-03-01T01:59:29;15.30;;;7.18;;
52838;SDS011;39219;53.678;9.856;2023-03-01T02:01:57;14.63;;;7.03;;
52838;SDS011;39219;53.678;9.856;2023-03-01T02:04:25;14.25;;;6.85;;
52838;SDS011;39219;53.678;9.856;2023-03-01T02:06:51;13.75;;;7.10;;
52838;SDS011;39219;53.678;9.856;2023-03-01T02:09:20;13.52;;;6.97;;
52838;SDS011;39219;53.678;9.856;2023-03-01T02:11:49;11.65;;;6.45;;
52838;SDS011;39219;53.678;9.856;2023-03-01T02:14:16;14.93;;;6.72;;
52838;SDS011;39219;53.678;9.856;2023-03-01T02:16:42;16.27;;;7.80;;
52838;SDS011;39219;53.678;9.856;2023-03-01T02:19:08;14.27;;;7.30;;
52838;SDS011;39219;53.678;9.856;2023-03-01T02:21:38;16.02;;;7.38;;
52838;SDS011;39219;53.678;9.856;2023-03-01T02:24:10;14.25;;;6.93;;
52838;SDS011;39219;53.678;9.856;2023-03-01T02:26:42;14.05;;;7.38;;
52838;SDS011;39219;53.678;9.856;2023-03-01T02:29:12;13.30;;;7.30;;
52838;SDS011;39219;53.678;9.856;2023-03-01T02:31:38;15.00;;;7.53;;
52838;SDS011;39219;53.678;9.856;2023-03-01T02:34:08;16.38;;;7.72;;
52838;SDS011;39219;53.678;9.856;2023-03-01T02:36:35;13.77;;;7.00;;
52838;SDS011;39219;53.678;9.856;2023-03-01T02:39:03;13.85;;;6.82;;
52838;SDS011;39219;53.678;9.856;2023-03-01T02:41:31;12.30;;;6.47;;
52838;SDS011;39219;53.678;9.856;2023-03-01T02:44:00;16.55;;;7.40;;
52838;SDS011;39219;53.678;9.856;2023-03-01T02:46:28;14.30;;;7.30;;
52838;SDS011;39219;53.678;9.856;2023-03-01T02:48:55;16.80;;;7.78;;
52838;SDS011;39219;53.678;9.856;2023-03-01T02:51:24;14.93;;;6.90;;
52838;SDS011;39219;53.678;9.856;2023-03-01T02:53:55;13.98;;;7.15;;
52838;SDS011;39219;53.678;9.856;2023-03-01T02:56:22;15.27;;;7.13;;
52838;SDS011;39219;53.678;9.856;2023-03-01T02:58:48;16.63;;;7.65;;
52838;SDS011;39219;53.678;9.856;2023-03-01T03:01:16;14.93;;;7.38;;
52838;SDS011;39219;53.678;9.856;2023-03-01T03:03:44;14.48;;;7.35;;
52838;SDS011;39219;53.678;9.856;2023-03-01T03:06:10;14.38;;;7.28;;
52838;SDS011;39219;53.678;9.856;2023-03-01T03:08:36;17.35;;;7.50;;
52838;SDS011;39219;53.678;9.856;2023-03-01T03:11:03;14.57;;;7.28;;
52838;SDS011;39219;53.678;9.856;2023-03-01T03:13:29;14.15;;;7.05;;
52838;SDS011;39219;53.678;9.856;2023-03-01T03:15:56;14.55;;;7.13;;
52838;SDS011;39219;53.678;9.856;2023-03-01T03:18:22;14.95;;;7.00;;
52838;SDS011;39219;53.678;9.856;2023-03-01T03:20:52;16.10;;;7.45;;
52838;SDS011;39219;53.678;9.856;2023-03-01T03:23:18;14.10;;;6.78;;
52838;SDS011;39219;53.678;9.856;2023-03-01T03:25:47;13.60;;;6.88;;
52838;SDS011;39219;53.678;9.856;2023-03-01T03:28:13;12.52;;;6.88;;
52838;SDS011;39219;53.678;9.856;2023-03-01T03:30:40;15.82;;;7.78;;
52838;SDS011;39219;53.678;9.856;2023-03-01T03:33:07;15.30;;;7.43;;
52838;SDS011;39219;53.678;9.856;2023-03-01T03:35:37;14.07;;;7.43;;
52838;SDS011;39219;53.678;9.856;2023-03-01T03:38:06;12.90;;;6.80;;
52838;SDS011;39219;53.678;9.856;2023-03-01T03:40:41;13.35;;;6.93;;
52838;SDS011;39219;53.678;9.856;2023-03-01T03:43:08;15.40;;;7.00;;
52838;SDS011;39219;53.678;9.856;2023-03-01T03:45:34;16.27;;;7.35;;
52838;SDS011;39219;53.678;9.856;2023-03-01T03:48:01;16.40;;;7.50;;
52838;SDS011;39219;53.678;9.856;2023-03-01T03:50:27;15.52;;;7.32;;
52838;SDS011;39219;53.678;9.856;2023-03-01T03:52:54;14.10;;;7.47;;
52838;SDS011;39219;53.678;9.856;2023-03-01T03:55:21;14.10;;;7.43;;
52838;SDS011;39219;53.678;9.856;2023-03-01T03:57:48;15.73;;;7.45;;
52838;SDS011;39219;53.678;9.856;2023-03-01T04:00:16;13.00;;;7.15;;
52838;SDS011;39219;53.678;9.856;2023-03-01T04:02:43;15.27;;;7.43;;
52838;SDS011;39219;53.678;9.856;2023-03-01T04:05:11;13.52;;;7.25;;
52838;SDS011;39219;53.678;9.856;2023-03-01T04:07:37;17.60;;;7.75;;
52838;SDS011;39219;53.678;9.856;2023-03-01T04:10:04;18.13;;;8.93;;
52838;SDS011;39219;53.678;9.856;2023-03-01T04:12:32;15.25;;;7.78;;
52838;SDS011;39219;53.678;9.856;2023-03-01T04:14:59;15.05;;;7.63;;
52838;SDS011;39219;53.678;9.856;2023-03-01T04:17:26;15.27;;;7.47;;
52838;SDS011;39219;53.678;9.856;2023-03-01T04:19:52;16.45;;;7.25;;
52838;SDS011;39219;53.678;9.856;2023-03-01T04:22:19;14.90;;;7.32;;
52838;SDS011;39219;53.678;9.856;2023-03-01T04:24:45;16.15;;;6.82;;
52838;SDS011;39219;53.678;9.856;2023-03-01T04:27:11;14.98;;;7.45;;
52838;SDS011;39219;53.678;9.856;2023-03-01T04:29:39;17.35;;;7.30;;
52838;SDS011;39219;53.678;9.856;2023-03-01T04:32:05;16.55;;;7.80;;
52838;SDS011;39219;53.678;9.856;2023-03-01T04:34:31;14.65;;;7.43;;
52838;SDS011;39219;53.678;9.856;2023-03-01T04:36:58;15.07;;;7.95;;
52838;SDS011;39219;53.678;9.856;2023-03-01T04:39:24;14.80;;;7.95;;
52838;SDS011;39219;53.678;9.856;2023-03-01T04:41:50;17.42;;;8.30;;
52838;SDS011;39219;53.678;9.856;2023-03-01T04:44:17;14.63;;;8.30;;
52838;SDS011;39219;53.678;9.856;2023-03-01T04:46:45;15.25;;;8.32;;
52838;SDS011;39219;53.678;9.856;2023-03-01T04:49:14;18.00;;;9.07;;
52838;SDS011;39219;53.678;9.856;2023-03-01T04:51:41;17.83;;;8.23;;
52838;SDS011;39219;53.678;9.856;2023-03-01T04:54:08;14.60;;;7.57;;
52838;SDS011;39219;53.678;9.856;2023-03-01T04:56:35;14.50;;;7.95;;
52838;SDS011;39219;53.678;9.856;2023-03-01T04:59:01;14.85;;;7.97;;
52838;SDS011;39219;53.678;9.856;2023-03-01T05:01:30;16.05;;;8.00;;
52838;SDS011;39219;53.678;9.856;2023-03-01T05:03:58;17.70;;;8.23;;
52838;SDS011;39219;53.678;9.856;2023-03-01T05:06:27;14.65;;;7.90;;
52838;SDS011;39219;53.678;9.856;2023-03-01T05:08:54;17.85;;;8.13;;
52838;SDS011;39219;53.678;9.856;2023-03-01T05:11:20;17.63;;;8.45;;
52838;SDS011;39219;53.678;9.856;2023-03-01T05:13:47;16.08;;;7.72;;
52838;SDS011;39219;53.678;9.856;2023-03-01T05:16:15;16.15;;;7.70;;
52838;SDS011;39219;53.678;9.856;2023-03-01T05:18:41;17.65;;;7.90;;
52838;SDS011;39219;53.678;9.856;2023-03-01T05:21:10;15.88;;;8.40;;
52838;SDS011;39219;53.678;9.856;2023-03-01T05:23:37;15.95;;;8.05;;
52838;SDS011;39219;53.678;9.856;2023-03-01T05:26:04;16.75;;;8.20;;
52838;SDS011;39219;53.678;9.856;2023-03-01T05:28:31;14.88;;;7.72;;
52838;SDS011;39219;53.678;9.856;2023-03-01T05:30:57;16.65;;;7.90;;
52838;SDS011;39219;53.678;9.856;2023-03-01T05:33:24;16.15;;;8.32;;
52838;SDS011;39219;53.678;9.856;2023-03-01T05:35:51;14.38;;;7.85;;
52838;SDS011;39219;53.678;9.856;2023-03-01T05:38:19;15.73;;;7.68;;
52838;SDS011;39219;53.678;9.856;2023-03-01T05:40:48;15.73;;;8.02;;
52838;SDS011;39219;53.678;9.856;2023-03-01T05:43:15;13.57;;;7.47;;
52838;SDS011;39219;53.678;9.856;2023-03-01T05:45:41;13.00;;;7.50;;
52838;SDS011;39219;53.678;9.856;2023-03-01T05:48:08;16.05;;;8.32;;
52838;SDS011;39219;53.678;9.856;2023-03-01T05:50:36;14.32;;;7.50;;
52838;SDS011;39219;53.678;9.856;2023-03-01T05:53:03;16.27;;;7.70;;
52838;SDS011;39219;53.678;9.856;2023-03-01T05:55:32;16.52;;;7.45;;
52838;SDS011;39219;53.678;9.856;2023-03-01T05:57:58;13.48;;;7.68;;
52838;SDS011;39219;53.678;9.856;2023-03-01T06:00:26;16.10;;;7.78;;
52838;SDS011;39219;53.678;9.856;2023-03-01T06:02:53;14.73;;;7.47;;
52838;SDS011;39219;53.678;9.856;2023-03-01T06:05:19;15.13;;;7.82;;
52838;SDS011;39219;53.678;9.856;2023-03-01T06:07:46;15.07;;;7.50;;
52838;SDS011;39219;53.678;9.856;2023-03-01T06:10:12;14.05;;;7.63;;
52838;SDS011;39219;53.678;9.856;2023-03-01T06:12:40;19.23;;;7.95;;
52838;SDS011;39219;53.678;9.856;2023-03-01T06:15:07;14.75;;;7.75;;
52838;SDS011;39219;53.678;9.856;2023-03-01T06:17:35;15.20;;;7.78;;
52838;SDS011;39219;53.678;9.856;2023-03-01T06:20:02;14.73;;;7.88;;
52838;SDS011;39219;53.678;9.856;2023-03-01T06:22:29;16.88;;;7.97;;
52838;SDS011;39219;53.678;9.856;2023-03-01T06:24:55;15.48;;;7.72;;
52838;SDS011;39219;53.678;9.856;2023-03-01T06:27:21;15.38;;;7.90;;
52838;SDS011;39219;53.678;9.856;2023-03-01T06:29:49;12.90;;;7.35;;
52838;SDS011;39219;53.678;9.856;2023-03-01T06:32:15;12.82;;;7.03;;
52838;SDS011;39219;53.678;9.856;2023-03-01T06:34:42;13.88;;;7.57;;
52838;SDS011;39219;53.678;9.856;2023-03-01T06:37:08;15.23;;;7.40;;
52838;SDS011;39219;53.678;9.856;2023-03-01T06:39:34;15.07;;;7.68;;
52838;SDS011;39219;53.678;9.856;2023-03-01T06:42:01;16.92;;;8.02;;
52838;SDS011;39219;53.678;9.856;2023-03-01T06:44:27;14.65;;;8.00;;
52838;SDS011;39219;53.678;9.856;2023-03-01T06:46:55;14.95;;;7.35;;
52838;SDS011;39219;53.678;9.856;2023-03-01T06:49:21;13.15;;;7.03;;
52838;SDS011;39219;53.678;9.856;2023-03-01T06:51:47;15.52;;;7.60;;
52838;SDS011;39219;53.678;9.856;2023-03-01T06:54:14;13.90;;;8.00;;
52838;SDS011;39219;53.678;9.856;2023-03-01T06:56:40;17.05;;;8.77;;
52838;SDS011;39219;53.678;9.856;2023-03-01T06:59:06;16.17;;;8.73;;
52838;SDS011;39219;53.678;9.856;2023-03-01T07:01:32;15.80;;;7.95;;
52838;SDS011;39219;53.678;9.856;2023-03-01T07:04:00;16.52;;;8.48;;
52838;SDS011;39219;53.678;9.856;2023-03-01T07:06:26;16.13;;;8.32;;
52838;SDS011;39219;53.678;9.856;2023-03-01T07:08:52;16.10;;;8.23;;
52838;SDS011;39219;53.678;9.856;2023-03-01T07:11:19;14.95;;;8.32;;
52838;SDS011;39219;53.678;9.856;2023-03-01T07:13:45;15.98;;;8.10;;
52838;SDS011;39219;53.678;9.856;2023-03-01T07:16:11;14.75;;;7.95;;
52838;SDS011;39219;53.678;9.856;2023-03-01T07:18:39;15.35;;;8.55;;
52838;SDS011;39219;53.678;9.856;2023-03-01T07:21:07;13.77;;;7.68;;
52838;SDS011;39219;53.678;9.856;2023-03-01T07:23:34;16.23;;;8.48;;
52838;SDS011;39219;53.678;9.856;2023-03-01T07:26:00;16.02;;;7.93;;
52838;SDS011;39219;53.678;9.856;2023-03-01T07:28:27;15.73;;;8.05;;
52838;SDS011;39219;53.678;9.856;2023-03-01T07:30:53;16.20;;;8.07;;
52838;SDS011;39219;53.678;9.856;2023-03-01T07:33:19;21.40;;;8.55;;
52838;SDS011;39219;53.678;9.856;2023-03-01T07:35:46;17.98;;;9.20;;
52838;SDS011;39219;53.678;9.856;2023-03-01T07:38:13;15.63;;;8.68;;
52838;SDS011;39219;53.678;9.856;2023-03-01T07:40:40;16.52;;;8.80;;
52838;SDS011;39219;53.678;9.856;2023-03-01T07:43:06;16.70;;;9.13;;
52838;SDS011;39219;53.678;9.856;2023-03-01T07:45:32;15.95;;;8.57;;
52838;SDS011;39219;53.678;9.856;2023-03-01T07:47:58;17.23;;;9.38;;
52838;SDS011;39219;53.678;9.856;2023-03-01T07:50:25;21.33;;;10.27;;
52838;SDS011;39219;53.678;9.856;2023-03-01T07:52:51;20.05;;;10.32;;
52838;SDS011;39219;53.678;9.856;2023-03-01T07:55:19;18.85;;;9.80;;
52838;SDS011;39219;53.678;9.856;2023-03-01T07:57:45;18.23;;;10.43;;
52838;SDS011;39219;53.678;9.856;2023-03-01T08:00:12;23.83;;;11.02;;
52838;SDS011;39219;53.678;9.856;2023-03-01T08:02:38;21.13;;;10.65;;
52838;SDS011;39219;53.678;9.856;2023-03-01T08:05:06;22.60;;;10.88;;
52838;SDS011;39219;53.678;9.856;2023-03-01T08:07:33;23.77;;;11.32;;
52838;SDS011;39219;53.678;9.856;2023-03-01T08:09:59;24.63;;;12.20;;
52838;SDS011;39219;53.678;9.856;2023-03-01T08:12:27;28.17;;;13.55;;
52838;SDS011;39219;53.678;9.856;2023-03-01T08:14:53;24.67;;;12.63;;
52838;SDS011;39219;53.678;9.856;2023-03-01T08:17:19;23.88;;;12.07;;
52838;SDS011;39219;53.678;9.856;2023-03-01T08:19:46;28.05;;;13.18;;
52838;SDS011;39219;53.678;9.856;2023-03-01T08:22:12;30.05;;;12.95;;
52838;SDS011;39219;53.678;9.856;2023-03-01T08:24:38;27.33;;;12.90;;
52838;SDS011;39219;53.678;9.856;2023-03-01T08:27:04;25.25;;;12.00;;
52838;SDS011;39219;53.678;9.856;2023-03-01T08:29:32;28.05;;;12.68;;
52838;SDS011;39219;53.678;9.856;2023-03-01T08:31:59;25.98;;;12.23;;
52838;SDS011;39219;53.678;9.856;2023-03-01T08:34:25;26.80;;;12.60;;
52838;SDS011;39219;53.678;9.856;2023-03-01T08:36:51;28.80;;;12.77;;
52838;SDS011;39219;53.678;9.856;2023-03-01T08:39:18;24.70;;;12.00;;
52838;SDS011;39219;53.678;9.856;2023-03-01T08:41:45;26.70;;;12.20;;
52838;SDS011;39219;53.678;9.856;2023-03-01T08:44:12;25.58;;;11.25;;
52838;SDS011;39219;53.678;9.856;2023-03-01T08:46:41;23.77;;;11.13;;
52838;SDS011;39219;53.678;9.856;2023-03-01T08:49:08;25.77;;;12.10;;
52838;SDS011;39219;53.678;9.856;2023-03-01T08:51:36;25.65;;;12.02;;
52838;SDS011;39219;53.678;9.856;2023-03-01T08:54:02;22.70;;;11.25;;
52838;SDS011;39219;53.678;9.856;2023-03-01T08:56:29;23.98;;;10.80;;
52838;SDS011;39219;53.678;9.856;2023-03-01T08:58:55;21.85;;;10.95;;
52838;SDS011;39219;53.678;9.856;2023-03-01T09:01:21;20.30;;;10.10;;
52838;SDS011;39219;53.678;9.856;2023-03-01T09:03:49;20.42;;;10.35;;
52838;SDS011;39219;53.678;9.856;2023-03-01T09:06:15;19.35;;;9.80;;
52838;SDS011;39219;53.678;9.856;2023-03-01T09:08:43;19.63;;;9.45;;
52838;SDS011;39219;53.678;9.856;2023-03-01T09:11:10;17.02;;;8.52;;
52838;SDS011;39219;53.678;9.856;2023-03-01T09:13:36;15.65;;;8.55;;
52838;SDS011;39219;53.678;9.856;2023-03-01T09:16:03;17.83;;;9.07;;
52838;SDS011;39219;53.678;9.856;2023-03-01T09:18:30;15.90;;;8.50;;
52838;SDS011;39219;53.678;9.856;2023-03-01T09:21:02;18.25;;;8.80;;
52838;SDS011;39219;53.678;9.856;2023-03-01T09:23:32;14.95;;;7.72;;
52838;SDS011;39219;53.678;9.856;2023-03-01T09:25:58;16.23;;;8.13;;
52838;SDS011;39219;53.678;9.856;2023-03-01T09:28:24;15.75;;;7.95;;
52838;SDS011;39219;53.678;9.856;2023-03-01T09:30:51;16.67;;;8.18;;
52838;SDS011;39219;53.678;9.856;2023-03-01T09:33:17;17.38;;;8.07;;
52838;SDS011;39219;53.678;9.856;2023-03-01T09:35:43;15.73;;;8.20;;
52838;SDS011;39219;53.678;9.856;2023-03-01T09:38:13;16.90;;;8.10;;
52838;SDS011;39219;53.678;9.856;2023-03-01T09:40:41;15.73;;;8.10;;
52838;SDS011;39219;53.678;9.856;2023-03-01T09:43:08;16.33;;;7.90;;
52838;SDS011;39219;53.678;9.856;2023-03-01T09:45:40;16.02;;;7.80;;
52838;SDS011;39219;53.678;9.856;2023-03-01T09:48:09;15.25;;;7.80;;
52838;SDS011;39219;53.678;9.856;2023-03-01T09:50:39;14.70;;;7.70;;
52838;SDS011;39219;53.678;9.856;2023-03-01T09:53:09;15.40;;;7.88;;
52838;SDS011;39219;53.678;9.856;2023-03-01T09:55:38;14.82;;;7.80;;
52838;SDS011;39219;53.678;9.856;2023-03-01T09:58:13;13.23;;;7.25;;
52838;SDS011;39219;53.678;9.856;2023-03-01T10:00:46;16.80;;;7.63;;
52838;SDS011;39219;53.678;9.856;2023-03-01T10:03:14;15.68;;;7.50;;
52838;SDS011;39219;53.678;9.856;2023-03-01T10:05:48;15.05;;;7.60;;
52838;SDS011;39219;53.678;9.856;2023-03-01T10:11:08;14.18;;;6.93;;
52838;SDS011;39219;53.678;9.856;2023-03-01T10:13:42;13.65;;;7.40;;
52838;SDS011;39219;53.678;9.856;2023-03-01T10:16:12;13.70;;;6.68;;
52838;SDS011;39219;53.678;9.856;2023-03-01T10:18:39;14.48;;;6.95;;
52838;SDS011;39219;53.678;9.856;2023-03-01T10:21:09;13.02;;;6.63;;
52838;SDS011;39219;53.678;9.856;2023-03-01T10:23:38;14.15;;;7.10;;
52838;SDS011;39219;53.678;9.856;2023-03-01T10:26:12;14.77;;;7.55;;
52838;SDS011;39219;53.678;9.856;2023-03-01T10:28:44;15.25;;;7.28;;
52838;SDS011;39219;53.678;9.856;2023-03-01T10:31:15;15.20;;;7.45;;
52838;SDS011;39219;53.678;9.856;2023-03-01T10:33:44;14.23;;;7.18;;
52838;SDS011;39219;53.678;9.856;2023-03-01T10:36:12;14.73;;;7.43;;
52838;SDS011;39219;53.678;9.856;2023-03-01T10:38:47;13.02;;;6.97;;
52838;SDS011;39219;53.678;9.856;2023-03-01T10:41:15;12.95;;;6.85;;
52838;SDS011;39219;53.678;9.856;2023-03-01T10:43:43;14.45;;;7.10;;
52838;SDS011;39219;53.678;9.856;2023-03-01T10:46:21;13.32;;;6.70;;
52838;SDS011;39219;53.678;9.856;2023-03-01T10:48:51;12.88;;;6.47;;
52838;SDS011;39219;53.678;9.856;2023-03-01T10:51:31;14.25;;;6.90;;
52838;SDS011;39219;53.678;9.856;2023-03-01T10:53:58;12.43;;;6.90;;
52838;SDS011;39219;53.678;9.856;2023-03-01T10:56:25;13.15;;;6.90;;
52838;SDS011;39219;53.678;9.856;2023-03-01T10:59:01;13.18;;;7.00;;
52838;SDS011;39219;53.678;9.856;2023-03-01T11:01:29;13.13;;;7.40;;
52838;SDS011;39219;53.678;9.856;2023-03-01T11:04:08;15.20;;;7.47;;
52838;SDS011;39219;53.678;9.856;2023-03-01T11:06:36;14.20;;;7.20;;
52838;SDS011;39219;53.678;9.856;2023-03-01T11:09:12;14.93;;;8.07;;
52838;SDS011;39219;53.678;9.856;2023-03-01T11:11:40;13.30;;;7.03;;
52838;SDS011;39219;53.678;9.856;2023-03-01T11:14:07;14.85;;;8.02;;
52838;SDS011;39219;53.678;9.856;2023-03-01T11:16:41;16.17;;;8.80;;
52838;SDS011;39219;53.678;9.856;2023-03-01T11:19:15;14.63;;;8.30;;
52838;SDS011;39219;53.678;9.856;2023-03-01T11:21:43;15.88;;;8.63;;
52838;SDS011;39219;53.678;9.856;2023-03-01T11:24:14;17.92;;;8.60;;
52838;SDS011;39219;53.678;9.856;2023-03-01T11:26:44;16.88;;;8.68;;
52838;SDS011;39219;53.678;9.856;2023-03-01T11:29:12;17.02;;;9.00;;
52838;SDS011;39219;53.678;9.856;2023-03-01T11:31:41;17.85;;;9.45;;
52838;SDS011;39219;53.678;9.856;2023-03-01T11:34:10;18.02;;;9.43;;
52838;SDS011;39219;53.678;9.856;2023-03-01T11:36:39;17.42;;;9.10;;
52838;SDS011;39219;53.678;9.856;2023-03-01T11:39:11;17.70;;;8.80;;
52838;SDS011;39219;53.678;9.856;2023-03-01T11:41:40;17.27;;;9.20;;
52838;SDS011;39219;53.678;9.856;2023-03-01T11:44:10;15.95;;;8.90;;
52838;SDS011;39219;53.678;9.856;2023-03-01T11:46:46;15.98;;;8.85;;
52838;SDS011;39219;53.678;9.856;2023-03-01T11:49:27;15.63;;;8.75;;
52838;SDS011;39219;53.678;9.856;2023-03-01T11:52:00;17.85;;;8.48;;
52838;SDS011;39219;53.678;9.856;2023-03-01T11:54:30;16.88;;;9.10;;
52838;SDS011;39219;53.678;9.856;2023-03-01T11:57:00;17.38;;;8.93;;
52838;SDS011;39219;53.678;9.856;2023-03-01T11:59:32;15.65;;;8.30;;
52838;SDS011;39219;53.678;9.856;2023-03-01T12:02:14;16.15;;;7.78;;
52838;SDS011;39219;53.678;9.856;2023-03-01T12:07:30;15.82;;;8.27;;
52838;SDS011;39219;53.678;9.856;2023-03-01T12:10:14;17.57;;;8.47;;
52838;SDS011;39219;53.678;9.856;2023-03-01T12:12:47;16.35;;;8.23;;
52838;SDS011;39219;53.678;9.856;2023-03-01T12:15:22;14.82;;;7.90;;
52838;SDS011;39219;53.678;9.856;2023-03-01T12:18:00;15.57;;;7.90;;
52838;SDS011;39219;53.678;9.856;2023-03-01T12:20:30;17.33;;;8.80;;
52838;SDS011;39219;53.678;9.856;2023-03-01T12:23:02;16.35;;;8.20;;
52838;SDS011;39219;53.678;9.856;2023-03-01T12:25:33;17.83;;;9.33;;
52838;SDS011;39219;53.678;9.856;2023-03-01T12:28:11;16.10;;;8.63;;
52838;SDS011;39219;53.678;9.856;2023-03-01T12:30:48;15.52;;;8.30;;
52838;SDS011;39219;53.678;9.856;2023-03-01T12:33:19;16.73;;;8.27;;
52838;SDS011;39219;53.678;9.856;2023-03-01T12:35:54;15.55;;;7.78;;
52838;SDS011;39219;53.678;9.856;2023-03-01T12:38:32;21.02;;;10.30;;
52838;SDS011;39219;53.678;9.856;2023-03-01T12:41:26;33.03;;;16.27;;
52838;SDS011;39219;53.678;9.856;2023-03-01T12:43:57;20.60;;;9.98;;
52838;SDS011;39219;53.678;9.856;2023-03-01T12:46:28;17.05;;;7.93;;
52838;SDS011;39219;53.678;9.856;2023-03-01T12:48:59;21.15;;;10.45;;
52838;SDS011;39219;53.678;9.856;2023-03-01T12:51:30;15.88;;;7.95;;
52838;SDS011;39219;53.678;9.856;2023-03-01T12:53:57;14.45;;;7.32;;
52838;SDS011;39219;53.678;9.856;2023-03-01T12:56:25;15.88;;;8.00;;
52838;SDS011;39219;53.678;9.856;2023-03-01T12:58:56;15.70;;;7.00;;
52838;SDS011;39219;53.678;9.856;2023-03-01T13:01:30;14.40;;;6.63;;
52838;SDS011;39219;53.678;9.856;2023-03-01T13:06:46;13.10;;;6.63;;
52838;SDS011;39219;53.678;9.856;2023-03-01T13:09:15;14.20;;;6.60;;
52838;SDS011;39219;53.678;9.856;2023-03-01T13:11:44;11.68;;;6.35;;
52838;SDS011;39219;53.678;9.856;2023-03-01T13:16:56;12.93;;;6.68;;
52838;SDS011;39219;53.678;9.856;2023-03-01T13:19:23;13.93;;;6.78;;
52838;SDS011;39219;53.678;9.856;2023-03-01T13:21:51;12.45;;;6.47;;
52838;SDS011;39219;53.678;9.856;2023-03-01T13:24:25;13.88;;;6.85;;
52838;SDS011;39219;53.678;9.856;2023-03-01T13:27:09;13.63;;;6.53;;
52838;SDS011;39219;53.678;9.856;2023-03-01T13:29:43;13.10;;;6.32;;
52838;SDS011;39219;53.678;9.856;2023-03-01T13:32:20;14.32;;;6.78;;
52838;SDS011;39219;53.678;9.856;2023-03-01T13:34:53;12.02;;;6.00;;
52838;SDS011;39219;53.678;9.856;2023-03-01T13:37:33;14.35;;;6.45;;
52838;SDS011;39219;53.678;9.856;2023-03-01T13:40:01;12.23;;;6.10;;
52838;SDS011;39219;53.678;9.856;2023-03-01T13:45:16;16.88;;;6.65;;
52838;SDS011;39219;53.678;9.856;2023-03-01T13:47:44;13.35;;;6.35;;
52838;SDS011;39219;53.678;9.856;2023-03-01T13:50:16;14.20;;;6.65;;
52838;SDS011;39219;53.678;9.856;2023-03-01T13:52:44;12.90;;;6.53;;
52838;SDS011;39219;53.678;9.856;2023-03-01T13:55:15;12.93;;;6.38;;
52838;SDS011;39219;53.678;9.856;2023-03-01T13:57:43;13.57;;;6.82;;
52838;SDS011;39219;53.678;9.856;2023-03-01T14:00:24;14.43;;;7.03;;
52838;SDS011;39219;53.678;9.856;2023-03-01T14:03:00;14.30;;;6.63;;
52838;SDS011;39219;53.678;9.856;2023-03-01T14:05:27;13.70;;;6.75;;
52838;SDS011;39219;53.678;9.856;2023-03-01T14:07:53;19.83;;;8.50;;
52838;SDS011;39219;53.678;9.856;2023-03-01T14:10:20;14.52;;;6.85;;
52838;SDS011;39219;53.678;9.856;2023-03-01T14:12:47;13.13;;;6.88;;
52838;SDS011;39219;53.678;9.856;2023-03-01T14:15:16;16.35;;;7.63;;
52838;SDS011;39219;53.678;9.856;2023-03-01T14:17:46;14.90;;;7.30;;
52838;SDS011;39219;53.678;9.856;2023-03-01T14:20:19;15.68;;;7.60;;
52838;SDS011;39219;53.678;9.856;2023-03-01T14:22:46;16.40;;;8.00;;
52838;SDS011;39219;53.678;9.856;2023-03-01T14:25:17;16.42;;;8.15;;
52838;SDS011;39219;53.678;9.856;2023-03-01T14:27:45;17.42;;;8.15;;
52838;SDS011;39219;53.678;9.856;2023-03-01T14:30:17;17.13;;;7.97;;
52838;SDS011;39219;53.678;9.856;2023-03-01T14:32:51;20.27;;;8.88;;
52838;SDS011;39219;53.678;9.856;2023-03-01T14:35:20;20.40;;;9.18;;
52838;SDS011;39219;53.678;9.856;2023-03-01T14:37:47;20.60;;;9.27;;
52838;SDS011;39219;53.678;9.856;2023-03-01T14:40:20;18.67;;;8.82;;
52838;SDS011;39219;53.678;9.856;2023-03-01T14:42:47;18.75;;;9.15;;
52838;SDS011;39219;53.678;9.856;2023-03-01T14:45:14;18.60;;;8.88;;
52838;SDS011;39219;53.678;9.856;2023-03-01T14:47:40;21.67;;;9.70;;
52838;SDS011;39219;53.678;9.856;2023-03-01T14:50:07;19.63;;;8.77;;
52838;SDS011;39219;53.678;9.856;2023-03-01T14:52:36;19.65;;;9.07;;
52838;SDS011;39219;53.678;9.856;2023-03-01T14:55:04;18.02;;;8.77;;